Time;durP1;ratioP1;P1;durP2;ratioP2;P2;SDS_P1;SDS_P2;PMS_P1;PMS_P2;Temp;Humidity;BMP_temperature;BMP_pressure;BME280_temperature;BME280_humidity;BME280_pressure;Samples;Min_cycle;Max_cycle;Signal;HPM_P1;HPM_P2
2021/01/09 00:00:03;;;;;;;3.88;1.90;;;19.20;37.90;;;;;;3613773;39;20132;-79
2021/01/09 00:02:39;;;;;;;1.55;1.40;;;19.20;37.80;;;;;;3614474;39;20104;-78
2021/01/09 00:05:05;;;;;;;2.33;1.50;;;19.20;37.90;;;;;;3604981;32;20108;-78
2021/01/09 00:07:31;;;;;;;2.13;1.70;;;19.20;37.80;;;;;;3613600;32;20116;-79
2021/01/09 00:09:57;;;;;;;2.88;1.52;;;19.20;37.90;;;;;;3605059;32;20108;-79
2021/01/09 00:12:23;;;;;;;1.88;1.67;;;19.20;37.90;;;;;;3613686;32;20108;-79
2021/01/09 00:14:49;;;;;;;1.85;1.75;;;19.20;37.80;;;;;;3613363;39;20108;-78
2021/01/09 00:17:14;;;;;;;2.08;1.42;;;19.20;37.80;;;;;;3623267;39;20108;-79
2021/01/09 00:19:40;;;;;;;1.90;1.70;;;19.20;37.90;;;;;;3623223;39;20119;-78
2021/01/09 00:22:07;;;;;;;2.58;1.55;;;19.20;37.90;;;;;;3623262;39;20169;-79
2021/01/09 00:24:32;;;;;;;2.45;1.85;;;19.20;37.90;;;;;;3613610;32;20152;-79
2021/01/09 00:26:58;;;;;;;2.08;1.52;;;19.20;37.90;;;;;;3623115;39;20108;-78
2021/01/09 00:29:23;;;;;;;1.73;1.63;;;19.10;37.90;;;;;;3604708;39;20099;-78
2021/01/09 00:31:49;;;;;;;1.38;1.27;;;19.20;37.90;;;;;;3613519;39;20111;-78
2021/01/09 00:34:14;;;;;;;1.60;1.50;;;19.20;37.90;;;;;;3613507;39;20100;-78
2021/01/09 00:36:47;;;;;;;1.70;1.40;;;19.20;38.30;;;;;;3604779;39;20136;-78
2021/01/09 00:39:13;;;;;;;1.55;1.45;;;19.20;37.90;;;;;;3604856;32;20161;-79
2021/01/09 00:41:39;;;;;;;2.25;1.60;;;19.20;37.90;;;;;;3604903;39;20113;-78
2021/01/09 00:44:06;;;;;;;3.80;1.50;;;19.20;37.90;;;;;;3604862;39;20084;-78
2021/01/09 00:46:32;;;;;;;1.60;1.50;;;19.20;37.80;;;;;;3604820;32;20115;-79
2021/01/09 00:48:58;;;;;;;2.10;1.65;;;19.10;37.80;;;;;;3613129;39;20100;-79
2021/01/09 00:51:23;;;;;;;2.22;1.60;;;19.10;37.90;;;;;;3604620;39;20185;-78
2021/01/09 00:53:49;;;;;;;1.50;1.40;;;19.20;37.80;;;;;;3613312;39;20123;-78
2021/01/09 00:56:16;;;;;;;1.98;1.75;;;19.20;37.90;;;;;;3613167;39;20582;-79
2021/01/09 00:58:42;;;;;;;1.65;1.55;;;19.20;37.90;;;;;;3622746;39;20553;-78
2021/01/09 01:01:08;;;;;;;2.20;1.77;;;19.20;37.90;;;;;;3613033;39;20177;-78
2021/01/09 01:03:34;;;;;;;1.30;1.20;;;19.10;37.90;;;;;;3604662;32;20123;-79
2021/01/09 01:06:00;;;;;;;1.60;1.50;;;19.20;37.90;;;;;;3613236;39;20092;-78
2021/01/09 01:08:26;;;;;;;1.42;1.33;;;19.10;37.70;;;;;;3622627;39;20123;-79
2021/01/09 01:10:54;;;;;;;1.33;1.23;;;19.20;37.90;;;;;;3604289;39;20535;-79
2021/01/09 01:13:21;;;;;;;2.40;1.60;;;19.20;37.80;;;;;;3613206;32;20114;-78
2021/01/09 01:15:46;;;;;;;1.52;1.42;;;19.20;37.80;;;;;;3604280;32;20132;-79
2021/01/09 01:18:12;;;;;;;2.17;1.70;;;19.10;37.80;;;;;;3612932;39;20581;-79
2021/01/09 01:20:37;;;;;;;1.60;1.50;;;19.20;37.90;;;;;;3613331;39;20104;-78
2021/01/09 01:23:03;;;;;;;2.05;1.73;;;19.20;38.30;;;;;;3612769;39;20096;-79
2021/01/09 01:25:28;;;;;;;1.95;1.60;;;19.20;37.80;;;;;;3622739;39;20145;-79
2021/01/09 01:27:55;;;;;;;1.50;1.40;;;19.20;37.90;;;;;;3622768;39;20116;-78
2021/01/09 01:30:21;;;;;;;1.80;1.70;;;19.20;37.70;;;;;;3604407;32;20112;-78
2021/01/09 01:32:47;;;;;;;2.28;1.40;;;19.20;37.80;;;;;;3613080;32;20123;-79
2021/01/09 01:35:12;;;;;;;1.33;1.23;;;19.20;37.80;;;;;;3622664;39;20112;-78
2021/01/09 01:37:38;;;;;;;1.90;1.58;;;19.20;37.80;;;;;;3612620;39;20148;-78
2021/01/09 01:40:05;;;;;;;1.90;1.63;;;19.20;37.70;;;;;;3622413;39;20100;-78
2021/01/09 01:42:31;;;;;;;3.08;1.52;;;19.20;37.80;;;;;;3613015;39;20155;-78
2021/01/09 01:44:56;;;;;;;1.48;1.38;;;19.20;37.80;;;;;;3604554;39;20119;-78
2021/01/09 01:47:22;;;;;;;1.50;1.40;;;19.20;37.80;;;;;;3622540;39;20112;-79
2021/01/09 01:49:49;;;;;;;1.40;1.30;;;19.20;37.80;;;;;;3622638;32;20141;-78
2021/01/09 01:52:16;;;;;;;1.50;1.40;;;19.20;37.70;;;;;;3612544;32;20570;-79
2021/01/09 01:54:42;;;;;;;1.60;1.50;;;19.20;38.30;;;;;;3612811;32;20506;-79
2021/01/09 01:57:09;;;;;;;1.40;1.30;;;19.20;37.80;;;;;;3604178;32;20100;-78
2021/01/09 01:59:38;;;;;;;1.60;1.50;;;19.20;37.80;;;;;;3612590;32;20170;-79
2021/01/09 02:02:06;;;;;;;1.92;1.73;;;19.20;37.70;;;;;;3624629;31;20540;-79
2021/01/09 02:04:32;;;;;;;1.27;1.17;;;19.20;37.80;;;;;;3612680;32;20096;-78
2021/01/09 02:07:02;;;;;;;1.58;1.48;;;19.20;37.80;;;;;;3612649;39;20585;-79
2021/01/09 02:09:32;;;;;;;1.40;1.30;;;19.20;37.70;;;;;;3612634;32;20111;-78
2021/01/09 02:12:07;;;;;;;1.60;1.50;;;19.20;37.80;;;;;;3604352;32;20112;-79
2021/01/09 02:14:57;;;;;;;2.38;1.70;;;19.20;37.70;;;;;;3604320;39;20120;-79
2021/01/09 02:17:24;;;;;;;2.13;1.30;;;19.20;37.80;;;;;;3612235;32;20141;-78
2021/01/09 02:19:50;;;;;;;1.50;1.35;;;19.20;37.70;;;;;;3612943;32;20184;-79
2021/01/09 02:22:18;;;;;;;1.63;1.42;;;19.20;37.70;;;;;;3622042;32;20115;-78
2021/01/09 02:24:45;;;;;;;1.70;1.60;;;19.20;37.70;;;;;;3624757;32;20152;-78
2021/01/09 02:27:12;;;;;;;2.38;1.60;;;19.20;37.80;;;;;;3606474;32;20145;-78
2021/01/09 02:29:50;;;;;;;1.60;1.50;;;19.20;37.70;;;;;;3606505;32;20099;-78
2021/01/09 02:32:18;;;;;;;1.58;1.48;;;19.20;37.70;;;;;;3614681;32;20152;-78
2021/01/09 02:34:57;;;;;;;1.58;1.48;;;19.20;37.70;;;;;;3606304;32;20108;-78
2021/01/09 02:37:25;;;;;;;1.77;1.50;;;19.20;37.80;;;;;;3605688;32;20096;-78
2021/01/09 02:39:51;;;;;;;1.45;1.27;;;19.20;37.80;;;;;;3613799;32;20458;-78
2021/01/09 02:42:18;;;;;;;1.58;1.48;;;19.20;37.80;;;;;;3628627;32;20104;-78
2021/01/09 02:44:47;;;;;;;1.55;1.45;;;19.20;37.80;;;;;;3606360;32;20115;-78
2021/01/09 02:47:13;;;;;;;1.95;1.48;;;19.20;37.80;;;;;;3605786;32;20140;-78
2021/01/09 02:49:38;;;;;;;1.38;1.27;;;19.20;37.70;;;;;;3624058;39;20084;-78
2021/01/09 02:52:04;;;;;;;2.10;1.50;;;19.20;37.70;;;;;;3605665;39;20516;-78
2021/01/09 02:54:30;;;;;;;1.20;1.10;;;19.20;37.70;;;;;;3623963;39;20774;-79
2021/01/09 02:56:55;;;;;;;1.75;1.65;;;19.20;37.70;;;;;;3613854;39;20108;-79
2021/01/09 02:59:21;;;;;;;1.40;1.30;;;19.20;37.70;;;;;;3605887;39;20119;-79
2021/01/09 03:01:48;;;;;;;1.60;1.50;;;19.20;37.80;;;;;;3605678;39;20111;-78
2021/01/09 03:04:14;;;;;;;1.70;1.60;;;19.20;37.70;;;;;;3605575;32;20140;-79
2021/01/09 03:06:39;;;;;;;1.67;1.45;;;19.20;37.70;;;;;;3623861;39;20578;-79
2021/01/09 03:09:05;;;;;;;3.65;1.10;;;19.20;37.80;;;;;;3614232;39;20656;-78
2021/01/09 03:11:31;;;;;;;1.45;1.30;;;19.20;37.70;;;;;;3623321;39;20643;-79
2021/01/09 03:13:56;;;;;;;1.65;1.33;;;19.20;37.70;;;;;;3605494;39;20133;-78
2021/01/09 03:16:22;;;;;;;1.33;1.23;;;19.20;37.70;;;;;;3613998;39;20104;-78
2021/01/09 03:18:47;;;;;;;1.85;1.30;;;19.20;37.80;;;;;;3605426;39;20100;-78
2021/01/09 03:21:13;;;;;;;2.03;1.55;;;19.20;37.70;;;;;;3613849;39;20099;-78
2021/01/09 03:23:39;;;;;;;1.60;1.50;;;19.20;37.70;;;;;;3614219;39;20116;-79
2021/01/09 03:26:04;;;;;;;2.67;1.50;;;19.20;37.70;;;;;;3605516;39;20112;-78
2021/01/09 03:28:30;;;;;;;1.33;1.23;;;19.20;37.70;;;;;;3605076;39;20393;-78
2021/01/09 03:30:56;;;;;;;1.60;1.30;;;19.20;37.70;;;;;;3605184;39;20096;-78
2021/01/09 03:33:21;;;;;;;1.45;1.35;;;19.20;37.70;;;;;;3623294;39;20583;-78
2021/01/09 03:35:47;;;;;;;1.40;1.30;;;19.20;37.70;;;;;;3605254;39;20100;-78
2021/01/09 03:38:13;;;;;;;1.50;1.40;;;19.20;37.70;;;;;;3623590;39;20137;-78
2021/01/09 03:40:38;;;;;;;1.50;1.40;;;19.20;37.70;;;;;;3613772;39;20103;-78
2021/01/09 03:43:04;;;;;;;1.27;1.17;;;19.20;37.70;;;;;;3613958;39;20128;-79
2021/01/09 03:45:29;;;;;;;1.35;1.25;;;19.20;37.60;;;;;;3605185;39;20176;-78
2021/01/09 03:47:55;;;;;;;1.25;1.15;;;19.20;37.60;;;;;;3605401;39;20455;-79
2021/01/09 03:50:21;;;;;;;1.50;1.40;;;19.20;37.60;;;;;;3613580;39;20108;-78
2021/01/09 03:52:47;;;;;;;1.35;1.20;;;19.20;37.60;;;;;;3605209;39;20092;-79
2021/01/09 03:55:12;;;;;;;1.40;1.30;;;19.30;37.60;;;;;;3604968;39;20173;-78
2021/01/09 03:57:38;;;;;;;1.52;1.38;;;19.30;37.60;;;;;;3613316;39;20521;-79
2021/01/09 04:00:05;;;;;;;1.83;1.60;;;19.30;37.60;;;;;;3613630;39;20123;-79
2021/01/09 04:02:34;;;;;;;1.13;1.02;;;19.30;37.50;;;;;;3613880;32;20108;-78
2021/01/09 04:05:02;;;;;;;1.50;1.40;;;19.30;37.50;;;;;;3604887;39;20108;-78
2021/01/09 04:07:28;;;;;;;1.20;1.10;;;19.30;37.50;;;;;;3613598;32;20169;-79
2021/01/09 04:09:53;;;;;;;1.23;1.13;;;19.30;37.50;;;;;;3613356;39;20551;-78
2021/01/09 04:12:19;;;;;;;1.55;1.45;;;19.30;37.50;;;;;;3604898;39;20115;-78
2021/01/09 04:14:45;;;;;;;1.40;1.30;;;19.30;37.50;;;;;;3623330;39;20859;-78
2021/01/09 04:17:11;;;;;;;1.75;1.02;;;19.30;37.50;;;;;;3604937;39;20127;-79
2021/01/09 04:19:37;;;;;;;1.42;1.25;;;19.30;37.50;;;;;;3612415;39;20136;-78
2021/01/09 04:22:02;;;;;;;1.20;1.10;;;19.30;37.50;;;;;;3604936;32;20100;-79
2021/01/09 04:24:28;;;;;;;1.45;1.35;;;19.30;37.50;;;;;;3604927;39;20107;-78
2021/01/09 04:26:55;;;;;;;1.08;1.08;;;19.30;37.50;;;;;;3613274;39;20462;-79
2021/01/09 04:29:21;;;;;;;1.30;1.20;;;19.30;37.50;;;;;;3623163;31;20318;-79
2021/01/09 04:31:48;;;;;;;1.33;1.23;;;19.40;37.50;;;;;;3613059;32;20139;-79
2021/01/09 04:34:13;;;;;;;1.35;1.25;;;19.40;37.50;;;;;;3613170;39;20123;-78
2021/01/09 04:36:39;;;;;;;1.10;1.00;;;19.40;37.50;;;;;;3613336;39;20096;-78
2021/01/09 04:39:05;;;;;;;1.42;1.27;;;19.40;38.00;;;;;;3604696;39;20096;-78
2021/01/09 04:41:34;;;;;;;1.80;1.70;;;19.40;37.40;;;;;;3605190;39;20159;-79
2021/01/09 04:44:00;;;;;;;1.23;1.10;;;19.40;37.40;;;;;;3614348;32;20569;-78
2021/01/09 04:46:26;;;;;;;1.95;1.50;;;19.40;37.50;;;;;;3613973;32;20430;-78
2021/01/09 04:48:53;;;;;;;1.25;1.10;;;19.40;37.40;;;;;;3605567;32;20108;-78
2021/01/09 04:51:19;;;;;;;1.45;1.13;;;19.40;37.40;;;;;;3605550;32;20100;-78
2021/01/09 04:53:47;;;;;;;1.35;1.23;;;19.40;37.50;;;;;;3613679;32;20098;-78
2021/01/09 04:56:12;;;;;;;1.40;1.30;;;19.40;37.50;;;;;;3605303;32;20111;-78
2021/01/09 04:58:38;;;;;;;1.40;1.30;;;19.40;37.50;;;;;;3613836;39;20444;-78
2021/01/09 05:01:05;;;;;;;1.17;1.08;;;19.40;37.50;;;;;;3613373;32;20445;-78
2021/01/09 05:03:31;;;;;;;1.38;1.27;;;19.40;37.40;;;;;;3612894;32;20100;-79
2021/01/09 05:05:56;;;;;;;1.40;1.27;;;19.40;37.50;;;;;;3603831;39;20102;-79
2021/01/09 05:08:22;;;;;;;1.10;1.10;;;19.40;37.50;;;;;;3613006;39;20242;-79
2021/01/09 05:10:49;;;;;;;1.40;1.30;;;19.40;37.50;;;;;;3612975;39;20563;-79
2021/01/09 05:13:15;;;;;;;1.52;1.30;;;19.40;37.40;;;;;;3604372;32;20520;-78
2021/01/09 05:15:41;;;;;;;1.60;1.20;;;19.40;37.50;;;;;;3604621;32;20660;-78
2021/01/09 05:18:07;;;;;;;1.48;1.33;;;19.40;37.50;;;;;;3612908;39;20124;-79
2021/01/09 05:20:33;;;;;;;1.30;1.20;;;19.40;37.50;;;;;;3612978;39;20115;-78
2021/01/09 05:23:00;;;;;;;1.33;1.20;;;19.40;37.50;;;;;;3613038;32;20107;-79
2021/01/09 05:25:29;;;;;;;1.40;1.30;;;19.40;37.50;;;;;;3613170;32;20119;-79
2021/01/09 05:27:57;;;;;;;1.40;1.30;;;19.40;37.50;;;;;;3612521;32;20579;-79
2021/01/09 05:30:24;;;;;;;1.25;1.15;;;19.40;37.50;;;;;;3612846;32;20112;-78
2021/01/09 05:32:51;;;;;;;1.30;1.20;;;19.40;37.50;;;;;;3612972;32;20187;-78
2021/01/09 05:35:17;;;;;;;1.35;1.25;;;19.30;37.40;;;;;;3612846;39;20107;-78
2021/01/09 05:37:50;;;;;;;1.40;1.20;;;19.40;37.50;;;;;;3622727;31;20115;-78
2021/01/09 05:40:17;;;;;;;1.15;1.05;;;19.30;37.50;;;;;;3603544;32;20096;-78
2021/01/09 05:42:43;;;;;;;1.70;1.40;;;19.30;37.40;;;;;;3612713;32;20190;-78
2021/01/09 05:45:11;;;;;;;1.20;1.10;;;19.30;37.40;;;;;;3612822;39;20108;-79
2021/01/09 05:47:37;;;;;;;1.30;1.20;;;19.30;37.50;;;;;;3604348;32;20118;-78
2021/01/09 05:50:05;;;;;;;1.25;1.15;;;19.30;37.40;;;;;;3603502;32;20088;-78
2021/01/09 05:52:38;;;;;;;1.30;1.20;;;19.30;37.40;;;;;;3612843;32;20116;-78
2021/01/09 05:55:05;;;;;;;1.35;1.25;;;19.30;37.40;;;;;;3613340;32;20108;-78
2021/01/09 05:57:32;;;;;;;1.60;1.48;;;19.30;37.40;;;;;;3604955;32;20593;-78
2021/01/09 06:00:03;;;;;;;1.33;1.23;;;19.30;37.40;;;;;;3614507;32;20104;-78
2021/01/09 06:02:42;;;;;;;1.23;1.05;;;19.30;37.40;;;;;;3614218;39;20585;-78
2021/01/09 06:05:10;;;;;;;1.38;1.27;;;19.30;37.40;;;;;;3605014;32;20115;-78
2021/01/09 06:07:36;;;;;;;1.38;1.10;;;19.30;37.40;;;;;;3605986;32;20118;-78
2021/01/09 06:10:15;;;;;;;1.30;1.20;;;19.30;37.40;;;;;;3614318;32;20571;-78
2021/01/09 06:12:57;;;;;;;1.23;1.13;;;19.30;37.40;;;;;;3604855;32;20512;-79
2021/01/09 06:15:24;;;;;;;1.40;1.27;;;19.30;37.40;;;;;;3614466;39;20546;-79
2021/01/09 06:17:52;;;;;;;1.35;1.25;;;19.30;37.40;;;;;;3606068;32;20196;-78
2021/01/09 06:20:19;;;;;;;1.10;1.00;;;19.30;37.50;;;;;;3614163;32;20131;-78
2021/01/09 06:22:45;;;;;;;1.35;1.25;;;19.30;37.40;;;;;;3614252;39;20115;-78
2021/01/09 06:25:11;;;;;;;1.13;1.13;;;19.30;37.40;;;;;;3605931;39;20096;-78
2021/01/09 06:27:40;;;;;;;1.83;1.27;;;19.30;37.40;;;;;;3639302;31;20167;-79
2021/01/09 06:30:09;;;;;;;1.33;1.10;;;19.30;37.40;;;;;;3605693;32;20100;-79
2021/01/09 06:32:39;;;;;;;1.45;1.30;;;19.30;37.40;;;;;;3614114;39;20100;-78
2021/01/09 06:35:09;;;;;;;1.40;1.30;;;19.30;37.40;;;;;;3613562;39;20103;-78
2021/01/09 06:37:35;;;;;;;1.27;1.13;;;19.30;37.40;;;;;;3614445;32;20139;-79
2021/01/09 06:40:03;;;;;;;1.00;1.00;;;19.30;37.40;;;;;;3605706;39;20147;-78
2021/01/09 06:42:31;;;;;;;0.90;0.90;;;19.30;37.40;;;;;;3613866;32;20107;-78
2021/01/09 06:45:00;;;;;;;1.10;1.10;;;19.30;37.40;;;;;;3605730;32;20520;-78
2021/01/09 06:47:27;;;;;;;1.13;1.02;;;19.30;37.40;;;;;;3613250;39;20107;-79
2021/01/09 06:49:53;;;;;;;1.35;1.27;;;19.30;37.40;;;;;;3605196;32;20511;-78
2021/01/09 06:52:19;;;;;;;1.50;1.35;;;19.30;37.40;;;;;;3614057;32;20112;-78
2021/01/09 06:54:46;;;;;;;1.27;1.17;;;19.30;37.40;;;;;;3614143;39;20107;-78
2021/01/09 06:57:20;;;;;;;1.20;1.10;;;19.30;37.40;;;;;;3613666;32;20511;-79
2021/01/09 06:59:51;;;;;;;1.25;1.15;;;19.30;37.40;;;;;;3613992;32;20116;-78
2021/01/09 07:02:23;;;;;;;0.95;0.95;;;19.30;37.40;;;;;;3621559;32;20103;-78
2021/01/09 07:04:58;;;;;;;0.90;0.90;;;19.30;37.40;;;;;;3624124;39;20115;-78
2021/01/09 07:07:33;;;;;;;1.15;1.05;;;19.30;37.40;;;;;;3615664;39;20121;-78
2021/01/09 07:10:03;;;;;;;1.30;1.20;;;19.30;37.90;;;;;;3633130;39;20122;-78
2021/01/09 07:12:30;;;;;;;1.10;1.00;;;19.40;37.40;;;;;;3624002;39;20108;-79
2021/01/09 07:15:10;;;;;;;1.30;1.20;;;19.30;37.30;;;;;;3625054;32;20105;-79
2021/01/09 07:17:41;;;;;;;1.30;1.20;;;19.30;37.30;;;;;;3616300;32;20115;-78
2021/01/09 07:20:08;;;;;;;;;;;19.30;37.30;;;;;;3625229;32;20107;-78
2021/01/09 07:22:42;;;;;;;0.93;0.93;;;19.30;37.30;;;;;;3624763;31;19995;-78
2021/01/09 07:25:10;;;;;;;1.17;1.08;;;19.30;37.30;;;;;;3624483;32;20110;-78
2021/01/09 07:27:40;;;;;;;1.25;1.10;;;19.30;37.30;;;;;;3623893;39;20520;-78
2021/01/09 07:30:25;;;;;;;1.50;1.30;;;19.30;37.40;;;;;;3623944;32;20168;-78
2021/01/09 07:37:51;;;;;;;;;;;;;;;;;;;;;
2021/01/09 07:49:43;;;;;;;1.17;1.08;;;19.40;37.40;;;;;;3585606;32;20311;-78
2021/01/09 08:01:46;;;;;;;;;;;;;;;;;;;;;
2021/01/09 08:05:19;;;;;;;;;;;;;;;;;;;;;
2021/01/09 08:13:23;;;;;;;1.10;1.00;;;19.40;37.30;;;;;;3549618;40;20107;-78
2021/01/09 08:21:34;;;;;;;;;;;;;;;;;;;;;
2021/01/09 08:37:50;;;;;;;;;;;;;;;;;;;;;
2021/01/09 09:16:33;;;;;;;;;;;;;;;;;;;;;
2021/01/09 09:20:17;;;;;;;1.30;1.20;;;19.40;37.40;;;;;;3529367;40;20213;-79
2021/01/09 10:29:36;;;;;;;;;;;;;;;;;;;;;
2021/01/09 10:37:28;;;;;;;1.48;1.38;;;19.40;37.30;;;;;;3579787;40;20106;-78
2021/01/09 10:41:19;;;;;;;;;;;;;;;;;;;;;
2021/01/09 10:52:32;;;;;;;;;;;;;;;;;;;;;
2021/01/09 10:59:42;;;;;;;1.60;1.30;;;19.40;37.30;;;;;;3577700;40;20128;-79
2021/01/09 11:11:38;;;;;;;1.08;0.98;;;19.40;37.30;;;;;;3633794;32;20177;-79
2021/01/09 11:23:45;;;;;;;;;;;;;;;;;;;;;
2021/01/09 11:39:20;;;;;;;1.30;1.20;;;19.40;37.20;;;;;;3590380;32;20176;-79
2021/01/09 11:51:00;;;;;;;;;;;;;;;;;;;;;
2021/01/09 12:06:02;;;;;;;;;;;;;;;;;;;;;
2021/01/09 12:21:31;;;;;;;;;;;;;;;;;;;;;
2021/01/09 12:32:48;;;;;;;1.80;1.40;;;19.40;37.20;;;;;;3536033;33;20129;-79
2021/01/09 12:36:30;;;;;;;1.40;1.30;;;19.40;37.20;;;;;;3547038;32;20651;-79
2021/01/09 12:39:58;;;;;;;1.45;1.30;;;19.40;37.20;;;;;;3555801;40;20100;-79
2021/01/09 12:43:54;;;;;;;1.52;1.42;;;19.40;37.10;;;;;;3549287;40;20288;-78
2021/01/09 12:51:59;;;;;;;;;;;;;;;;;;;;;
2021/01/09 12:56:17;;;;;;;;;;;;;;;;;;;;;
2021/01/09 13:04:11;;;;;;;;;;;;;;;;;;;;;
2021/01/09 13:07:50;;;;;;;;;;;;;;;;;;;;;
2021/01/09 13:12:04;;;;;;;;;;;;;;;;;;;;;
2021/01/09 13:15:57;;;;;;;;;;;;;;;;;;;;;
2021/01/09 13:19:44;;;;;;;1.38;1.27;;;19.40;37.30;;;;;;3555487;32;20130;-79
2021/01/09 13:26:09;;;;;;;1.40;1.30;;;19.40;37.40;;;;;;3599380;32;20569;-79
2021/01/09 13:30:17;;;;;;;1.45;1.35;;;19.40;37.40;;;;;;3590771;32;20127;-79
2021/01/09 13:33:37;;;;;;;1.50;1.38;;;19.40;37.40;;;;;;3564469;32;20109;-79
2021/01/09 13:37:29;;;;;;;1.53;1.43;;;19.40;37.40;;;;;;3566668;40;20124;-79
2021/01/09 13:49:33;;;;;;;1.50;1.40;;;19.30;37.40;;;;;;3529799;40;20208;-79
2021/01/09 14:08:33;;;;;;;1.33;1.23;;;19.30;37.40;;;;;;3569721;32;20159;-79
2021/01/09 14:12:08;;;;;;;1.70;1.60;;;19.30;37.40;;;;;;3589913;39;20101;-79
2021/01/09 14:15:58;;;;;;;1.58;1.30;;;19.30;37.50;;;;;;3684118;31;20102;-79
2021/01/09 14:46:52;;;;;;;1.48;1.38;;;19.30;37.50;;;;;;3589528;33;20107;-79
2021/01/09 14:50:56;;;;;;;1.65;1.55;;;19.30;37.50;;;;;;3641989;31;20135;-79
2021/01/09 14:54:16;;;;;;;1.60;1.50;;;19.30;37.40;;;;;;3554356;33;20106;-79
2021/01/09 14:58:24;;;;;;;;;;;;;;;;;;;;;
2021/01/09 15:06:06;;;;;;;1.40;1.30;;;19.30;37.40;;;;;;3607352;39;20527;-79
2021/01/09 15:10:01;;;;;;;;;;;;;;;;;;;;;
2021/01/09 15:21:44;;;;;;;;;;;;;;;;;;;;;
2021/01/09 15:25:00;;;;;;;1.63;1.52;;;19.30;37.30;;;;;;3594682;39;20219;-79
2021/01/09 15:27:51;;;;;;;2.03;1.77;;;19.30;37.30;;;;;;3624835;32;20113;-79
2021/01/09 15:30:21;;;;;;;1.88;1.77;;;19.30;37.40;;;;;;3592464;32;20104;-79
2021/01/09 15:32:46;;;;;;;1.90;1.60;;;19.30;37.30;;;;;;3624361;39;20111;-77
2021/01/09 15:35:12;;;;;;;2.15;2.00;;;19.30;37.30;;;;;;3615597;39;20103;-78
2021/01/09 15:37:38;;;;;;;1.80;1.70;;;19.30;37.30;;;;;;3634090;39;20165;-78
2021/01/09 15:40:04;;;;;;;1.60;1.50;;;19.30;37.30;;;;;;3615795;39;20104;-78
2021/01/09 15:42:29;;;;;;;2.00;1.80;;;19.30;37.30;;;;;;3624496;32;20201;-79
2021/01/09 15:44:55;;;;;;;2.97;1.90;;;19.30;37.30;;;;;;3616014;39;20185;-78
2021/01/09 15:47:21;;;;;;;1.65;1.55;;;19.30;37.30;;;;;;3624289;39;20176;-79
2021/01/09 15:49:46;;;;;;;1.73;1.63;;;19.30;37.30;;;;;;3624512;39;20118;-79
2021/01/09 15:52:12;;;;;;;2.08;1.88;;;19.30;37.30;;;;;;3615700;39;20144;-78
2021/01/09 15:54:38;;;;;;;1.95;1.75;;;19.30;37.30;;;;;;3624370;39;20126;-78
2021/01/09 15:57:04;;;;;;;2.50;1.90;;;19.30;37.20;;;;;;3615015;39;20100;-78
2021/01/09 15:59:30;;;;;;;2.20;2.00;;;19.30;37.20;;;;;;3675171;31;20127;-78
2021/01/09 16:01:55;;;;;;;2.10;2.00;;;19.30;37.10;;;;;;3623803;39;20091;-79
2021/01/09 16:04:21;;;;;;;2.28;2.08;;;19.30;37.20;;;;;;3623556;39;20465;-79
2021/01/09 16:06:46;;;;;;;2.22;1.80;;;19.30;37.20;;;;;;3623876;39;20096;-79
2021/01/09 16:09:12;;;;;;;2.30;2.10;;;19.30;37.20;;;;;;3615214;39;20109;-78
2021/01/09 16:11:38;;;;;;;1.98;1.85;;;19.30;37.20;;;;;;3614886;39;20151;-78
2021/01/09 16:14:04;;;;;;;2.33;2.13;;;19.30;37.20;;;;;;3623742;39;20107;-78
2021/01/09 16:16:33;;;;;;;2.22;2.03;;;19.30;37.20;;;;;;3633451;31;20107;-79
2021/01/09 16:18:59;;;;;;;2.42;2.03;;;19.30;37.20;;;;;;3614990;32;20096;-78
2021/01/09 16:21:26;;;;;;;2.00;1.80;;;19.30;37.20;;;;;;3623647;39;20459;-79
2021/01/09 16:23:52;;;;;;;2.38;2.17;;;19.30;37.20;;;;;;3623722;32;20129;-79
2021/01/09 16:26:28;;;;;;;2.00;1.80;;;19.30;37.20;;;;;;3633516;39;20168;-78
2021/01/09 16:28:56;;;;;;;2.05;1.85;;;19.30;37.10;;;;;;3623657;32;20107;-79
2021/01/09 16:31:41;;;;;;;2.33;2.08;;;19.30;37.10;;;;;;3633117;32;20124;-78
2021/01/09 16:34:08;;;;;;;1.77;1.67;;;19.30;37.20;;;;;;3615037;32;20397;-78
2021/01/09 16:36:34;;;;;;;2.15;1.95;;;19.30;37.20;;;;;;3614345;32;20482;-79
2021/01/09 16:39:02;;;;;;;2.45;2.25;;;19.30;37.10;;;;;;3614681;39;20100;-78
2021/01/09 16:41:28;;;;;;;1.80;1.70;;;19.30;37.20;;;;;;3633799;31;20208;-78
2021/01/09 16:43:58;;;;;;;3.45;2.13;;;19.30;37.20;;;;;;3623295;32;20110;-78
2021/01/09 16:46:24;;;;;;;1.70;1.60;;;19.30;37.20;;;;;;3626526;31;20118;-79
2021/01/09 16:48:51;;;;;;;2.38;2.17;;;19.30;37.20;;;;;;3623297;39;20108;-78
2021/01/09 16:51:22;;;;;;;2.28;2.08;;;19.30;37.20;;;;;;3614560;32;20123;-79
2021/01/09 16:53:50;;;;;;;2.35;2.15;;;19.30;37.20;;;;;;3623421;32;20111;-78
2021/01/09 16:56:17;;;;;;;2.47;2.10;;;19.30;37.20;;;;;;3632863;32;20590;-78
2021/01/09 16:58:43;;;;;;;2.40;2.20;;;19.30;37.20;;;;;;3623207;32;20096;-79
2021/01/09 17:01:10;;;;;;;2.20;2.00;;;19.30;37.20;;;;;;3614525;39;20111;-79
2021/01/09 17:03:36;;;;;;;2.30;2.10;;;19.30;37.10;;;;;;3623469;32;20124;-79
2021/01/09 17:06:02;;;;;;;1.83;1.73;;;19.30;37.10;;;;;;3623322;32;20179;-79
2021/01/09 17:08:28;;;;;;;2.85;2.15;;;19.30;37.20;;;;;;3623165;32;20113;-78
2021/01/09 17:10:55;;;;;;;2.30;2.10;;;19.30;37.10;;;;;;3633158;39;20515;-78
2021/01/09 17:13:21;;;;;;;2.58;2.33;;;19.30;37.10;;;;;;3615820;32;20107;-79
2021/01/09 17:15:47;;;;;;;2.88;2.65;;;19.30;37.20;;;;;;3634076;39;20096;-78
2021/01/09 17:18:12;;;;;;;3.25;2.28;;;19.30;37.20;;;;;;3623893;32;20115;-78
2021/01/09 17:20:39;;;;;;;2.38;2.17;;;19.30;37.20;;;;;;3623840;39;20116;-78
2021/01/09 17:23:04;;;;;;;2.40;2.20;;;19.30;37.10;;;;;;3633418;39;20143;-78
2021/01/09 17:25:30;;;;;;;2.30;2.10;;;19.30;37.10;;;;;;3623294;39;20102;-78
2021/01/09 17:27:56;;;;;;;2.47;2.28;;;19.30;37.20;;;;;;3623244;39;20108;-78
2021/01/09 17:30:22;;;;;;;2.38;2.17;;;19.30;37.10;;;;;;3623707;39;20095;-79
2021/01/09 17:32:47;;;;;;;2.78;2.42;;;19.30;37.10;;;;;;3623043;39;20136;-78
2021/01/09 17:35:13;;;;;;;2.58;2.10;;;19.30;37.10;;;;;;3622751;39;20095;-79
2021/01/09 17:37:39;;;;;;;2.20;2.00;;;19.30;37.10;;;;;;3623235;39;20111;-79
2021/01/09 17:40:06;;;;;;;2.65;2.45;;;19.30;37.10;;;;;;3623150;39;20125;-78
2021/01/09 17:42:32;;;;;;;2.53;2.28;;;19.30;37.20;;;;;;3632925;32;20528;-78
2021/01/09 17:44:57;;;;;;;2.30;2.10;;;19.20;37.00;;;;;;3615067;39;20107;-78
2021/01/09 17:47:23;;;;;;;2.40;2.10;;;19.30;37.20;;;;;;3623119;39;20103;-79
2021/01/09 17:49:48;;;;;;;2.60;2.40;;;19.30;37.10;;;;;;3623049;39;20557;-78
2021/01/09 17:52:14;;;;;;;2.42;2.22;;;19.30;37.10;;;;;;3614272;39;20092;-78
2021/01/09 17:54:40;;;;;;;2.45;2.25;;;19.30;37.10;;;;;;3623103;39;20110;-78
2021/01/09 17:57:06;;;;;;;3.00;2.20;;;19.30;37.20;;;;;;3622893;32;20164;-78
2021/01/09 17:59:32;;;;;;;2.42;2.22;;;19.20;37.10;;;;;;3622981;39;20534;-79
2021/01/09 18:01:57;;;;;;;2.83;2.25;;;19.20;37.10;;;;;;3623133;39;20173;-79
2021/01/09 18:04:24;;;;;;;2.30;2.10;;;19.20;37.10;;;;;;3632724;39;20156;-78
2021/01/09 18:06:51;;;;;;;2.50;2.30;;;19.20;37.70;;;;;;3614190;32;20559;-78
2021/01/09 18:09:17;;;;;;;2.80;2.30;;;19.20;37.10;;;;;;3614174;32;20115;-79
2021/01/09 18:11:43;;;;;;;2.67;2.47;;;19.30;37.10;;;;;;3614474;39;20171;-78
2021/01/09 18:14:12;;;;;;;2.30;2.10;;;19.30;37.20;;;;;;3622756;39;20462;-79
2021/01/09 18:16:38;;;;;;;2.47;2.28;;;19.30;37.10;;;;;;3613989;32;20110;-79
2021/01/09 18:19:11;;;;;;;2.40;2.20;;;19.20;37.10;;;;;;3622797;32;20186;-79
2021/01/09 18:21:45;;;;;;;2.38;2.17;;;19.20;37.10;;;;;;3614822;32;20483;-79
2021/01/09 18:24:31;;;;;;;2.40;2.20;;;19.20;37.10;;;;;;3623587;39;20116;-79
2021/01/09 18:26:58;;;;;;;2.40;2.20;;;19.20;37.10;;;;;;3622632;39;20110;-78
2021/01/09 18:29:30;;;;;;;2.80;2.30;;;19.30;37.10;;;;;;3622711;32;20582;-78
2021/01/09 18:31:56;;;;;;;2.10;1.95;;;19.30;37.10;;;;;;3622595;39;20124;-79
2021/01/09 18:34:22;;;;;;;3.25;2.58;;;19.20;37.00;;;;;;3632259;39;20464;-78
2021/01/09 18:36:50;;;;;;;2.58;2.10;;;19.30;37.10;;;;;;3622959;32;20562;-78
2021/01/09 18:39:18;;;;;;;2.70;2.47;;;19.30;37.10;;;;;;3622580;39;20586;-78
2021/01/09 18:41:46;;;;;;;2.30;2.10;;;19.30;37.10;;;;;;3614199;32;20137;-78
2021/01/09 18:44:12;;;;;;;3.20;2.45;;;19.20;37.10;;;;;;3622787;32;20095;-78
2021/01/09 18:46:47;;;;;;;2.70;2.17;;;19.30;37.10;;;;;;3622144;39;20532;-78
2021/01/09 18:49:22;;;;;;;2.45;2.10;;;19.20;37.00;;;;;;3614647;32;20143;-79
2021/01/09 18:51:58;;;;;;;2.88;2.65;;;19.30;37.10;;;;;;3613299;39;20466;-79
2021/01/09 18:54:25;;;;;;;2.30;2.10;;;19.30;37.10;;;;;;3622616;32;20119;-78
2021/01/09 18:56:53;;;;;;;2.50;2.30;;;19.30;37.00;;;;;;3622301;39;20096;-79
2021/01/09 18:59:18;;;;;;;2.40;2.20;;;19.30;37.10;;;;;;3622313;39;20486;-79
2021/01/09 19:01:49;;;;;;;3.00;2.70;;;19.30;37.00;;;;;;3622529;39;20115;-78
2021/01/09 19:04:17;;;;;;;2.85;2.45;;;19.30;37.10;;;;;;3614092;32;20147;-78
2021/01/09 19:06:43;;;;;;;2.78;2.50;;;19.30;37.10;;;;;;3615334;32;20115;-78
2021/01/09 19:09:09;;;;;;;3.05;2.55;;;19.30;37.10;;;;;;3615699;39;20470;-78
2021/01/09 19:11:44;;;;;;;2.78;2.53;;;19.30;37.10;;;;;;3615801;32;20100;-78